sensor_id;sensor_type;location;lat;lon;timestamp;pressure;altitude;pressure_sealevel;temperature
14784;BMP180;7483;50.498;12.138;2022-11-27T00:01:35;231333.00;;;226.50
14784;BMP180;7483;50.498;12.138;2022-11-27T00:04:04;231333.00;;;226.50
14784;BMP180;7483;50.498;12.138;2022-11-27T00:06:35;231333.00;;;226.50
14784;BMP180;7483;50.498;12.138;2022-11-27T00:09:07;231333.00;;;226.50
14784;BMP180;7483;50.498;12.138;2022-11-27T00:11:36;231333.00;;;226.50
14784;BMP180;7483;50.498;12.138;2022-11-27T00:14:06;231333.00;;;226.50
14784;BMP180;7483;50.498;12.138;2022-11-27T00:16:34;231333.00;;;226.50
14784;BMP180;7483;50.498;12.138;2022-11-27T00:19:02;231333.00;;;226.50
14784;BMP180;7483;50.498;12.138;2022-11-27T00:21:34;231333.00;;;226.50
14784;BMP180;7483;50.498;12.138;2022-11-27T00:24:06;231333.00;;;226.50
14784;BMP180;7483;50.498;12.138;2022-11-27T00:26:34;231333.00;;;226.50
14784;BMP180;7483;50.498;12.138;2022-11-27T00:29:05;231333.00;;;226.50
14784;BMP180;7483;50.498;12.138;2022-11-27T00:31:35;231333.00;;;226.50
14784;BMP180;7483;50.498;12.138;2022-11-27T00:34:07;231333.00;;;226.50
14784;BMP180;7483;50.498;12.138;2022-11-27T00:36:37;231333.00;;;226.50
14784;BMP180;7483;50.498;12.138;2022-11-27T00:39:11;231333.00;;;226.50
14784;BMP180;7483;50.498;12.138;2022-11-27T00:41:39;231333.00;;;226.50
14784;BMP180;7483;50.498;12.138;2022-11-27T00:44:07;231333.00;;;226.50
14784;BMP180;7483;50.498;12.138;2022-11-27T00:46:35;231333.00;;;226.50
14784;BMP180;7483;50.498;12.138;2022-11-27T00:49:05;231333.00;;;226.50
14784;BMP180;7483;50.498;12.138;2022-11-27T00:51:35;231333.00;;;226.50
14784;BMP180;7483;50.498;12.138;2022-11-27T00:54:04;231333.00;;;226.50
14784;BMP180;7483;50.498;12.138;2022-11-27T00:56:36;160067.00;;;226.50
14784;BMP180;7483;50.498;12.138;2022-11-27T00:59:06;231333.00;;;226.50
14784;BMP180;7483;50.498;12.138;2022-11-27T01:01:39;231333.00;;;226.50
14784;BMP180;7483;50.498;12.138;2022-11-27T01:04:11;231333.00;;;226.50
14784;BMP180;7483;50.498;12.138;2022-11-27T01:06:41;231333.00;;;226.50
14784;BMP180;7483;50.498;12.138;2022-11-27T01:09:11;231333.00;;;226.50
14784;BMP180;7483;50.498;12.138;2022-11-27T01:11:40;231333.00;;;226.50
14784;BMP180;7483;50.498;12.138;2022-11-27T01:14:12;231333.00;;;226.50
14784;BMP180;7483;50.498;12.138;2022-11-27T01:16:40;231333.00;;;226.50
14784;BMP180;7483;50.498;12.138;2022-11-27T01:19:11;231333.00;;;226.50
14784;BMP180;7483;50.498;12.138;2022-11-27T01:21:41;231333.00;;;226.50
14784;BMP180;7483;50.498;12.138;2022-11-27T01:24:12;231333.00;;;226.50
14784;BMP180;7483;50.498;12.138;2022-11-27T01:26:42;231333.00;;;226.50
14784;BMP180;7483;50.498;12.138;2022-11-27T01:29:11;231333.00;;;226.50
14784;BMP180;7483;50.498;12.138;2022-11-27T01:31:39;231333.00;;;226.50
14784;BMP180;7483;50.498;12.138;2022-11-27T01:34:12;231333.00;;;226.50
14784;BMP180;7483;50.498;12.138;2022-11-27T01:36:43;231333.00;;;226.50
14784;BMP180;7483;50.498;12.138;2022-11-27T01:39:16;231333.00;;;226.50
14784;BMP180;7483;50.498;12.138;2022-11-27T01:41:46;231333.00;;;226.50
14784;BMP180;7483;50.498;12.138;2022-11-27T01:44:48;231333.00;;;226.50
14784;BMP180;7483;50.498;12.138;2022-11-27T01:47:28;231333.00;;;226.50
14784;BMP180;7483;50.498;12.138;2022-11-27T01:50:08;231333.00;;;226.50
14784;BMP180;7483;50.498;12.138;2022-11-27T01:52:44;231333.00;;;226.50
14784;BMP180;7483;50.498;12.138;2022-11-27T01:55:22;231333.00;;;226.50
14784;BMP180;7483;50.498;12.138;2022-11-27T01:57:58;231333.00;;;226.50
14784;BMP180;7483;50.498;12.138;2022-11-27T02:00:27;231333.00;;;226.50
14784;BMP180;7483;50.498;12.138;2022-11-27T02:02:55;231333.00;;;226.50
14784;BMP180;7483;50.498;12.138;2022-11-27T02:05:26;231333.00;;;226.50
14784;BMP180;7483;50.498;12.138;2022-11-27T02:07:58;231333.00;;;226.50
14784;BMP180;7483;50.498;12.138;2022-11-27T02:10:40;231333.00;;;226.50
14784;BMP180;7483;50.498;12.138;2022-11-27T02:13:14;231333.00;;;226.50
14784;BMP180;7483;50.498;12.138;2022-11-27T02:15:51;231333.00;;;226.50
14784;BMP180;7483;50.498;12.138;2022-11-27T02:18:30;231333.00;;;226.50
14784;BMP180;7483;50.498;12.138;2022-11-27T02:21:05;231333.00;;;226.50
14784;BMP180;7483;50.498;12.138;2022-11-27T02:24:06;231333.00;;;226.50
14784;BMP180;7483;50.498;12.138;2022-11-27T02:27:16;231333.00;;;226.50
14784;BMP180;7483;50.498;12.138;2022-11-27T02:29:51;231333.00;;;226.50
14784;BMP180;7483;50.498;12.138;2022-11-27T02:32:26;231333.00;;;226.50
14784;BMP180;7483;50.498;12.138;2022-11-27T02:35:03;231333.00;;;226.50
14784;BMP180;7483;50.498;12.138;2022-11-27T02:37:39;231333.00;;;226.50
14784;BMP180;7483;50.498;12.138;2022-11-27T02:40:14;231333.00;;;226.50
14784;BMP180;7483;50.498;12.138;2022-11-27T02:42:50;231333.00;;;226.50
14784;BMP180;7483;50.498;12.138;2022-11-27T02:45:26;231333.00;;;226.50
14784;BMP180;7483;50.498;12.138;2022-11-27T02:47:56;231333.00;;;226.50
14784;BMP180;7483;50.498;12.138;2022-11-27T02:50:28;231333.00;;;226.50
14784;BMP180;7483;50.498;12.138;2022-11-27T02:53:02;231333.00;;;226.50
14784;BMP180;7483;50.498;12.138;2022-11-27T02:55:33;231333.00;;;226.50
14784;BMP180;7483;50.498;12.138;2022-11-27T02:58:09;231333.00;;;226.50
14784;BMP180;7483;50.498;12.138;2022-11-27T03:00:44;231333.00;;;226.50
14784;BMP180;7483;50.498;12.138;2022-11-27T03:03:17;231333.00;;;226.50
14784;BMP180;7483;50.498;12.138;2022-11-27T03:05:51;231333.00;;;226.50
14784;BMP180;7483;50.498;12.138;2022-11-27T03:08:28;231333.00;;;226.50
14784;BMP180;7483;50.498;12.138;2022-11-27T03:11:03;231333.00;;;226.50
14784;BMP180;7483;50.498;12.138;2022-11-27T03:13:35;231333.00;;;226.50
14784;BMP180;7483;50.498;12.138;2022-11-27T03:16:10;231333.00;;;226.50
14784;BMP180;7483;50.498;12.138;2022-11-27T03:18:48;231333.00;;;226.50
14784;BMP180;7483;50.498;12.138;2022-11-27T03:21:27;231333.00;;;226.50
14784;BMP180;7483;50.498;12.138;2022-11-27T03:23:58;231333.00;;;226.50
14784;BMP180;7483;50.498;12.138;2022-11-27T03:26:26;231333.00;;;226.50
14784;BMP180;7483;50.498;12.138;2022-11-27T03:28:57;231333.00;;;226.50
14784;BMP180;7483;50.498;12.138;2022-11-27T03:31:29;231333.00;;;226.50
14784;BMP180;7483;50.498;12.138;2022-11-27T03:33:57;231333.00;;;226.50
14784;BMP180;7483;50.498;12.138;2022-11-27T03:36:26;231333.00;;;226.50
14784;BMP180;7483;50.498;12.138;2022-11-27T03:38:54;231333.00;;;226.50
14784;BMP180;7483;50.498;12.138;2022-11-27T03:41:30;231333.00;;;226.50
14784;BMP180;7483;50.498;12.138;2022-11-27T03:44:09;231333.00;;;226.50
14784;BMP180;7483;50.498;12.138;2022-11-27T03:46:50;231333.00;;;226.50
14784;BMP180;7483;50.498;12.138;2022-11-27T03:49:30;231333.00;;;226.50
14784;BMP180;7483;50.498;12.138;2022-11-27T03:52:10;231333.00;;;226.50
14784;BMP180;7483;50.498;12.138;2022-11-27T03:54:51;231333.00;;;226.50
14784;BMP180;7483;50.498;12.138;2022-11-27T03:57:26;231333.00;;;226.50
14784;BMP180;7483;50.498;12.138;2022-11-27T04:00:02;231333.00;;;226.50
14784;BMP180;7483;50.498;12.138;2022-11-27T04:02:41;231333.00;;;226.50
14784;BMP180;7483;50.498;12.138;2022-11-27T04:05:11;231333.00;;;226.50
14784;BMP180;7483;50.498;12.138;2022-11-27T04:07:40;231333.00;;;226.50
14784;BMP180;7483;50.498;12.138;2022-11-27T04:10:11;231333.00;;;226.50
14784;BMP180;7483;50.498;12.138;2022-11-27T04:12:39;231333.00;;;226.50
14784;BMP180;7483;50.498;12.138;2022-11-27T04:15:08;231333.00;;;226.50
14784;BMP180;7483;50.498;12.138;2022-11-27T04:17:38;231333.00;;;226.50
14784;BMP180;7483;50.498;12.138;2022-11-27T04:20:09;231333.00;;;226.50
14784;BMP180;7483;50.498;12.138;2022-11-27T04:22:37;231333.00;;;226.50
14784;BMP180;7483;50.498;12.138;2022-11-27T04:25:06;231333.00;;;226.50
14784;BMP180;7483;50.498;12.138;2022-11-27T04:27:34;231333.00;;;226.50
14784;BMP180;7483;50.498;12.138;2022-11-27T04:30:04;231333.00;;;226.50
14784;BMP180;7483;50.498;12.138;2022-11-27T04:32:32;231333.00;;;226.50
14784;BMP180;7483;50.498;12.138;2022-11-27T04:35:02;231333.00;;;226.50
14784;BMP180;7483;50.498;12.138;2022-11-27T04:37:30;231333.00;;;226.50
14784;BMP180;7483;50.498;12.138;2022-11-27T04:39:58;231333.00;;;226.50
14784;BMP180;7483;50.498;12.138;2022-11-27T04:42:26;231333.00;;;226.50
14784;BMP180;7483;50.498;12.138;2022-11-27T04:44:55;231333.00;;;226.50
14784;BMP180;7483;50.498;12.138;2022-11-27T04:47:23;231333.00;;;226.50
14784;BMP180;7483;50.498;12.138;2022-11-27T04:49:51;231333.00;;;226.50
14784;BMP180;7483;50.498;12.138;2022-11-27T04:52:20;231333.00;;;226.50
14784;BMP180;7483;50.498;12.138;2022-11-27T04:54:48;231333.00;;;226.50
14784;BMP180;7483;50.498;12.138;2022-11-27T04:57:24;231333.00;;;226.50
14784;BMP180;7483;50.498;12.138;2022-11-27T04:59:52;231333.00;;;226.50
14784;BMP180;7483;50.498;12.138;2022-11-27T05:02:20;231333.00;;;226.50
14784;BMP180;7483;50.498;12.138;2022-11-27T05:04:49;231333.00;;;226.50
14784;BMP180;7483;50.498;12.138;2022-11-27T05:07:17;231333.00;;;226.50
14784;BMP180;7483;50.498;12.138;2022-11-27T05:09:46;231333.00;;;226.50
14784;BMP180;7483;50.498;12.138;2022-11-27T05:12:14;231333.00;;;226.50
14784;BMP180;7483;50.498;12.138;2022-11-27T05:14:42;231333.00;;;226.50
14784;BMP180;7483;50.498;12.138;2022-11-27T05:17:10;231333.00;;;226.50
14784;BMP180;7483;50.498;12.138;2022-11-27T05:19:38;231333.00;;;226.50
14784;BMP180;7483;50.498;12.138;2022-11-27T05:22:07;231333.00;;;226.50
14784;BMP180;7483;50.498;12.138;2022-11-27T05:24:35;231333.00;;;226.50
14784;BMP180;7483;50.498;12.138;2022-11-27T05:27:04;231333.00;;;226.50
14784;BMP180;7483;50.498;12.138;2022-11-27T05:29:33;231333.00;;;226.50
14784;BMP180;7483;50.498;12.138;2022-11-27T05:32:01;231333.00;;;226.50
14784;BMP180;7483;50.498;12.138;2022-11-27T05:34:29;231333.00;;;226.50
14784;BMP180;7483;50.498;12.138;2022-11-27T05:36:57;231333.00;;;226.50
14784;BMP180;7483;50.498;12.138;2022-11-27T05:39:25;231333.00;;;226.50
14784;BMP180;7483;50.498;12.138;2022-11-27T05:41:53;231333.00;;;226.50
14784;BMP180;7483;50.498;12.138;2022-11-27T05:44:23;231333.00;;;226.50
14784;BMP180;7483;50.498;12.138;2022-11-27T05:46:51;231333.00;;;226.50
14784;BMP180;7483;50.498;12.138;2022-11-27T05:49:19;231333.00;;;226.50
14784;BMP180;7483;50.498;12.138;2022-11-27T05:51:47;231333.00;;;226.50
14784;BMP180;7483;50.498;12.138;2022-11-27T05:54:18;231333.00;;;226.50
14784;BMP180;7483;50.498;12.138;2022-11-27T05:56:46;231333.00;;;226.50
14784;BMP180;7483;50.498;12.138;2022-11-27T05:59:14;231333.00;;;226.50
14784;BMP180;7483;50.498;12.138;2022-11-27T06:01:44;231333.00;;;226.50
14784;BMP180;7483;50.498;12.138;2022-11-27T06:04:12;231333.00;;;226.50
14784;BMP180;7483;50.498;12.138;2022-11-27T06:06:40;231333.00;;;226.50
14784;BMP180;7483;50.498;12.138;2022-11-27T06:09:08;231333.00;;;226.50
14784;BMP180;7483;50.498;12.138;2022-11-27T06:11:40;231333.00;;;226.50
14784;BMP180;7483;50.498;12.138;2022-11-27T06:14:09;231333.00;;;226.50
14784;BMP180;7483;50.498;12.138;2022-11-27T06:16:38;231333.00;;;226.50
14784;BMP180;7483;50.498;12.138;2022-11-27T06:19:07;231333.00;;;226.50
14784;BMP180;7483;50.498;12.138;2022-11-27T06:21:36;231333.00;;;226.50
14784;BMP180;7483;50.498;12.138;2022-11-27T06:24:05;231333.00;;;226.50
14784;BMP180;7483;50.498;12.138;2022-11-27T06:26:33;231333.00;;;226.50
14784;BMP180;7483;50.498;12.138;2022-11-27T06:29:02;231333.00;;;226.50
14784;BMP180;7483;50.498;12.138;2022-11-27T06:31:32;231333.00;;;226.50
14784;BMP180;7483;50.498;12.138;2022-11-27T06:34:01;231333.00;;;226.50
14784;BMP180;7483;50.498;12.138;2022-11-27T06:36:33;231333.00;;;226.50
14784;BMP180;7483;50.498;12.138;2022-11-27T06:39:04;231333.00;;;226.50
14784;BMP180;7483;50.498;12.138;2022-11-27T06:41:32;231333.00;;;226.50
14784;BMP180;7483;50.498;12.138;2022-11-27T06:44:01;231333.00;;;226.50
14784;BMP180;7483;50.498;12.138;2022-11-27T06:46:29;231333.00;;;226.50
14784;BMP180;7483;50.498;12.138;2022-11-27T06:48:59;231333.00;;;226.50
14784;BMP180;7483;50.498;12.138;2022-11-27T06:51:31;231333.00;;;226.50
14784;BMP180;7483;50.498;12.138;2022-11-27T06:54:00;231333.00;;;226.50
14784;BMP180;7483;50.498;12.138;2022-11-27T06:56:30;231333.00;;;226.50
14784;BMP180;7483;50.498;12.138;2022-11-27T06:59:00;231333.00;;;226.50
14784;BMP180;7483;50.498;12.138;2022-11-27T07:01:30;231333.00;;;226.50
14784;BMP180;7483;50.498;12.138;2022-11-27T07:03:58;231333.00;;;226.50
14784;BMP180;7483;50.498;12.138;2022-11-27T07:06:27;231333.00;;;226.50
14784;BMP180;7483;50.498;12.138;2022-11-27T07:08:57;231333.00;;;226.50
14784;BMP180;7483;50.498;12.138;2022-11-27T07:11:27;231333.00;;;226.50
14784;BMP180;7483;50.498;12.138;2022-11-27T07:14:00;231333.00;;;226.50
14784;BMP180;7483;50.498;12.138;2022-11-27T07:16:31;231333.00;;;226.50
14784;BMP180;7483;50.498;12.138;2022-11-27T07:19:03;231333.00;;;226.50
14784;BMP180;7483;50.498;12.138;2022-11-27T07:21:32;231333.00;;;226.50
14784;BMP180;7483;50.498;12.138;2022-11-27T07:24:02;231333.00;;;226.50
14784;BMP180;7483;50.498;12.138;2022-11-27T07:26:30;231333.00;;;226.50
14784;BMP180;7483;50.498;12.138;2022-11-27T07:28:58;231333.00;;;226.50
14784;BMP180;7483;50.498;12.138;2022-11-27T07:31:28;231333.00;;;226.50
14784;BMP180;7483;50.498;12.138;2022-11-27T07:33:57;231333.00;;;226.50
14784;BMP180;7483;50.498;12.138;2022-11-27T07:36:28;231333.00;;;226.50
14784;BMP180;7483;50.498;12.138;2022-11-27T07:38:57;231333.00;;;226.50
14784;BMP180;7483;50.498;12.138;2022-11-27T07:41:26;231333.00;;;226.50
14784;BMP180;7483;50.498;12.138;2022-11-27T07:44:00;231333.00;;;226.50
14784;BMP180;7483;50.498;12.138;2022-11-27T07:46:28;231333.00;;;226.50
14784;BMP180;7483;50.498;12.138;2022-11-27T07:48:57;231333.00;;;226.50
14784;BMP180;7483;50.498;12.138;2022-11-27T07:51:26;231333.00;;;226.50
14784;BMP180;7483;50.498;12.138;2022-11-27T07:53:54;231333.00;;;226.50
14784;BMP180;7483;50.498;12.138;2022-11-27T07:56:22;231333.00;;;226.50
14784;BMP180;7483;50.498;12.138;2022-11-27T07:58:52;231333.00;;;226.50
14784;BMP180;7483;50.498;12.138;2022-11-27T08:01:20;231333.00;;;226.50
14784;BMP180;7483;50.498;12.138;2022-11-27T08:03:49;231333.00;;;226.50
14784;BMP180;7483;50.498;12.138;2022-11-27T08:06:20;231333.00;;;226.50
14784;BMP180;7483;50.498;12.138;2022-11-27T08:08:49;231333.00;;;226.50
14784;BMP180;7483;50.498;12.138;2022-11-27T08:11:21;231333.00;;;226.50
14784;BMP180;7483;50.498;12.138;2022-11-27T08:13:53;231333.00;;;226.50
14784;BMP180;7483;50.498;12.138;2022-11-27T08:16:23;231333.00;;;226.50
14784;BMP180;7483;50.498;12.138;2022-11-27T08:18:52;231333.00;;;226.50
14784;BMP180;7483;50.498;12.138;2022-11-27T08:21:20;231333.00;;;226.50
14784;BMP180;7483;50.498;12.138;2022-11-27T08:23:49;231333.00;;;226.50
14784;BMP180;7483;50.498;12.138;2022-11-27T08:26:18;231333.00;;;226.50
14784;BMP180;7483;50.498;12.138;2022-11-27T08:28:46;231333.00;;;226.50
14784;BMP180;7483;50.498;12.138;2022-11-27T08:31:15;231333.00;;;226.50
14784;BMP180;7483;50.498;12.138;2022-11-27T08:33:45;231333.00;;;226.50
14784;BMP180;7483;50.498;12.138;2022-11-27T08:36:13;231333.00;;;226.50
14784;BMP180;7483;50.498;12.138;2022-11-27T08:38:44;231333.00;;;226.50
14784;BMP180;7483;50.498;12.138;2022-11-27T08:41:13;231333.00;;;226.50
14784;BMP180;7483;50.498;12.138;2022-11-27T08:43:41;231333.00;;;226.50
14784;BMP180;7483;50.498;12.138;2022-11-27T08:46:10;231333.00;;;226.50
14784;BMP180;7483;50.498;12.138;2022-11-27T08:48:38;231333.00;;;226.50
14784;BMP180;7483;50.498;12.138;2022-11-27T08:51:11;231333.00;;;226.50
14784;BMP180;7483;50.498;12.138;2022-11-27T08:53:40;231333.00;;;226.50
14784;BMP180;7483;50.498;12.138;2022-11-27T08:56:16;231333.00;;;226.50
14784;BMP180;7483;50.498;12.138;2022-11-27T08:58:44;231333.00;;;226.50
14784;BMP180;7483;50.498;12.138;2022-11-27T09:01:16;231333.00;;;226.50
14784;BMP180;7483;50.498;12.138;2022-11-27T09:03:45;231333.00;;;226.50
14784;BMP180;7483;50.498;12.138;2022-11-27T09:06:17;231333.00;;;226.50
14784;BMP180;7483;50.498;12.138;2022-11-27T09:08:48;231333.00;;;226.50
14784;BMP180;7483;50.498;12.138;2022-11-27T09:11:19;231333.00;;;226.50
14784;BMP180;7483;50.498;12.138;2022-11-27T09:13:47;231333.00;;;226.50
14784;BMP180;7483;50.498;12.138;2022-11-27T09:16:19;231333.00;;;226.50
14784;BMP180;7483;50.498;12.138;2022-11-27T09:18:51;231333.00;;;226.50
14784;BMP180;7483;50.498;12.138;2022-11-27T09:21:24;231333.00;;;226.50
14784;BMP180;7483;50.498;12.138;2022-11-27T09:23:55;231333.00;;;226.50
14784;BMP180;7483;50.498;12.138;2022-11-27T09:26:24;231333.00;;;226.50
14784;BMP180;7483;50.498;12.138;2022-11-27T09:28:54;231333.00;;;226.50
14784;BMP180;7483;50.498;12.138;2022-11-27T09:31:23;231333.00;;;226.50
14784;BMP180;7483;50.498;12.138;2022-11-27T09:33:52;231333.00;;;226.50
14784;BMP180;7483;50.498;12.138;2022-11-27T09:36:24;231333.00;;;226.50
14784;BMP180;7483;50.498;12.138;2022-11-27T09:38:53;231333.00;;;226.50
14784;BMP180;7483;50.498;12.138;2022-11-27T09:41:45;231333.00;;;226.50
14784;BMP180;7483;50.498;12.138;2022-11-27T09:44:35;231333.00;;;226.50
14784;BMP180;7483;50.498;12.138;2022-11-27T09:47:14;231333.00;;;226.50
14784;BMP180;7483;50.498;12.138;2022-11-27T09:49:49;231333.00;;;226.50
14784;BMP180;7483;50.498;12.138;2022-11-27T09:52:26;231333.00;;;226.50
14784;BMP180;7483;50.498;12.138;2022-11-27T09:55:01;231333.00;;;226.50
14784;BMP180;7483;50.498;12.138;2022-11-27T09:57:36;231333.00;;;226.50
14784;BMP180;7483;50.498;12.138;2022-11-27T10:00:13;231333.00;;;226.50
14784;BMP180;7483;50.498;12.138;2022-11-27T10:02:42;231333.00;;;226.50
14784;BMP180;7483;50.498;12.138;2022-11-27T10:05:18;231333.00;;;226.50
14784;BMP180;7483;50.498;12.138;2022-11-27T10:08:18;231333.00;;;226.50
14784;BMP180;7483;50.498;12.138;2022-11-27T10:11:08;231333.00;;;226.50
14784;BMP180;7483;50.498;12.138;2022-11-27T10:13:54;231333.00;;;226.50
14784;BMP180;7483;50.498;12.138;2022-11-27T10:16:35;231333.00;;;226.50
14784;BMP180;7483;50.498;12.138;2022-11-27T10:19:28;231333.00;;;226.50
14784;BMP180;7483;50.498;12.138;2022-11-27T10:22:03;231333.00;;;226.50
14784;BMP180;7483;50.498;12.138;2022-11-27T10:24:43;231333.00;;;226.50
14784;BMP180;7483;50.498;12.138;2022-11-27T10:27:21;231333.00;;;226.50
14784;BMP180;7483;50.498;12.138;2022-11-27T10:29:53;231333.00;;;226.50
14784;BMP180;7483;50.498;12.138;2022-11-27T10:32:25;231333.00;;;226.50
14784;BMP180;7483;50.498;12.138;2022-11-27T10:35:18;231333.00;;;226.50
14784;BMP180;7483;50.498;12.138;2022-11-27T10:37:51;231333.00;;;226.50
14784;BMP180;7483;50.498;12.138;2022-11-27T10:40:29;160248.00;;;226.50
14784;BMP180;7483;50.498;12.138;2022-11-27T10:43:06;231333.00;;;226.50
14784;BMP180;7483;50.498;12.138;2022-11-27T10:45:43;231333.00;;;226.50
14784;BMP180;7483;50.498;12.138;2022-11-27T10:48:13;231333.00;;;226.50
14784;BMP180;7483;50.498;12.138;2022-11-27T10:50:42;231333.00;;;226.50
14784;BMP180;7483;50.498;12.138;2022-11-27T10:53:24;231333.00;;;226.50
14784;BMP180;7483;50.498;12.138;2022-11-27T10:56:35;231333.00;;;226.50
14784;BMP180;7483;50.498;12.138;2022-11-27T10:59:12;231333.00;;;226.50
14784;BMP180;7483;50.498;12.138;2022-11-27T11:01:45;231333.00;;;226.50
14784;BMP180;7483;50.498;12.138;2022-11-27T11:04:19;231333.00;;;226.50
14784;BMP180;7483;50.498;12.138;2022-11-27T11:07:24;231333.00;;;226.50
14784;BMP180;7483;50.498;12.138;2022-11-27T11:09:53;231333.00;;;226.50
14784;BMP180;7483;50.498;12.138;2022-11-27T11:12:23;231333.00;;;226.50
14784;BMP180;7483;50.498;12.138;2022-11-27T11:14:53;231333.00;;;226.50
14784;BMP180;7483;50.498;12.138;2022-11-27T11:17:25;231333.00;;;226.50
14784;BMP180;7483;50.498;12.138;2022-11-27T11:19:53;231333.00;;;226.50
14784;BMP180;7483;50.498;12.138;2022-11-27T11:22:22;231333.00;;;226.50
14784;BMP180;7483;50.498;12.138;2022-11-27T11:24:52;231333.00;;;226.50
14784;BMP180;7483;50.498;12.138;2022-11-27T11:27:25;231333.00;;;226.50
14784;BMP180;7483;50.498;12.138;2022-11-27T11:29:57;231333.00;;;226.50
14784;BMP180;7483;50.498;12.138;2022-11-27T11:32:30;231333.00;;;226.50
14784;BMP180;7483;50.498;12.138;2022-11-27T11:35:03;231333.00;;;226.50
14784;BMP180;7483;50.498;12.138;2022-11-27T11:37:37;231333.00;;;226.50
14784;BMP180;7483;50.498;12.138;2022-11-27T11:40:21;231333.00;;;226.50
14784;BMP180;7483;50.498;12.138;2022-11-27T11:42:54;231333.00;;;226.50
14784;BMP180;7483;50.498;12.138;2022-11-27T11:45:24;231333.00;;;226.50
14784;BMP180;7483;50.498;12.138;2022-11-27T11:48:00;231333.00;;;226.50
14784;BMP180;7483;50.498;12.138;2022-11-27T11:50:34;231333.00;;;226.50
14784;BMP180;7483;50.498;12.138;2022-11-27T11:53:11;231333.00;;;226.50
14784;BMP180;7483;50.498;12.138;2022-11-27T11:55:51;97886.00;;;11.50
14784;BMP180;7483;50.498;12.138;2022-11-27T11:58:39;97872.00;;;10.90
14784;BMP180;7483;50.498;12.138;2022-11-27T12:04:32;97858.00;;;10.50
14784;BMP180;7483;50.498;12.138;2022-11-27T12:07:19;97904.00;;;11.10
14784;BMP180;7483;50.498;12.138;2022-11-27T12:09:56;97919.00;;;12.00
14784;BMP180;7483;50.498;12.138;2022-11-27T12:12:50;97930.00;;;12.00
14784;BMP180;7483;50.498;12.138;2022-11-27T12:15:28;97921.00;;;12.70
14784;BMP180;7483;50.498;12.138;2022-11-27T12:18:00;97920.00;;;12.00
14784;BMP180;7483;50.498;12.138;2022-11-27T12:20:47;97902.00;;;12.30
14784;BMP180;7483;50.498;12.138;2022-11-27T12:23:41;97891.00;;;10.90
14784;BMP180;7483;50.498;12.138;2022-11-27T12:26:24;97907.00;;;11.30
14784;BMP180;7483;50.498;12.138;2022-11-27T12:29:41;97889.00;;;10.70
14784;BMP180;7483;50.498;12.138;2022-11-27T12:32:31;97862.00;;;10.70
14784;BMP180;7483;50.498;12.138;2022-11-27T12:38:29;97878.00;;;9.90
14784;BMP180;7483;50.498;12.138;2022-11-27T12:41:25;97869.00;;;10.30
14784;BMP180;7483;50.498;12.138;2022-11-27T12:43:56;97874.00;;;10.50
14784;BMP180;7483;50.498;12.138;2022-11-27T12:46:34;97854.00;;;10.50
14784;BMP180;7483;50.498;12.138;2022-11-27T12:49:18;97866.00;;;10.90
14784;BMP180;7483;50.498;12.138;2022-11-27T12:51:52;97859.00;;;10.60
14784;BMP180;7483;50.498;12.138;2022-11-27T12:54:28;97854.00;;;10.00
14784;BMP180;7483;50.498;12.138;2022-11-27T12:57:01;97843.00;;;10.10
14784;BMP180;7483;50.498;12.138;2022-11-27T12:59:40;97846.00;;;8.80
14784;BMP180;7483;50.498;12.138;2022-11-27T13:02:25;97808.00;;;8.50
14784;BMP180;7483;50.498;12.138;2022-11-27T13:05:02;97809.00;;;8.70
14784;BMP180;7483;50.498;12.138;2022-11-27T13:07:40;97575.00;;;8.30
14784;BMP180;7483;50.498;12.138;2022-11-27T13:10:19;97827.00;;;8.20
14784;BMP180;7483;50.498;12.138;2022-11-27T13:13:01;97832.00;;;7.80
14784;BMP180;7483;50.498;12.138;2022-11-27T13:15:38;97827.00;;;7.20
14784;BMP180;7483;50.498;12.138;2022-11-27T13:18:18;97814.00;;;6.60
14784;BMP180;7483;50.498;12.138;2022-11-27T13:20:50;97815.00;;;6.10
14784;BMP180;7483;50.498;12.138;2022-11-27T13:23:19;97744.00;;;5.70
14784;BMP180;7483;50.498;12.138;2022-11-27T13:25:53;97776.00;;;5.50
14784;BMP180;7483;50.498;12.138;2022-11-27T13:28:29;97798.00;;;5.30
14784;BMP180;7483;50.498;12.138;2022-11-27T13:31:00;97600.00;;;5.20
14784;BMP180;7483;50.498;12.138;2022-11-27T13:33:36;97580.00;;;5.00
14784;BMP180;7483;50.498;12.138;2022-11-27T13:36:17;97509.00;;;4.80
14784;BMP180;7483;50.498;12.138;2022-11-27T13:38:54;97575.00;;;4.70
14784;BMP180;7483;50.498;12.138;2022-11-27T13:41:30;97594.00;;;4.60
14784;BMP180;7483;50.498;12.138;2022-11-27T13:44:00;97530.00;;;4.40
14784;BMP180;7483;50.498;12.138;2022-11-27T13:46:44;97585.00;;;4.30
14784;BMP180;7483;50.498;12.138;2022-11-27T13:49:25;97606.00;;;4.30
14784;BMP180;7483;50.498;12.138;2022-11-27T13:52:08;97590.00;;;4.00
14784;BMP180;7483;50.498;12.138;2022-11-27T13:54:38;97578.00;;;4.00
14784;BMP180;7483;50.498;12.138;2022-11-27T13:57:12;97563.00;;;4.00
14784;BMP180;7483;50.498;12.138;2022-11-27T13:59:55;97579.00;;;3.90
14784;BMP180;7483;50.498;12.138;2022-11-27T14:02:23;97580.00;;;3.90
14784;BMP180;7483;50.498;12.138;2022-11-27T14:04:52;97578.00;;;3.90
14784;BMP180;7483;50.498;12.138;2022-11-27T14:07:37;97589.00;;;4.00
14784;BMP180;7483;50.498;12.138;2022-11-27T14:10:12;97586.00;;;4.10
14784;BMP180;7483;50.498;12.138;2022-11-27T14:12:51;97599.00;;;4.00
14784;BMP180;7483;50.498;12.138;2022-11-27T14:15:24;97616.00;;;3.70
14784;BMP180;7483;50.498;12.138;2022-11-27T14:18:04;97638.00;;;3.80
14784;BMP180;7483;50.498;12.138;2022-11-27T14:20:44;97603.00;;;3.60
14784;BMP180;7483;50.498;12.138;2022-11-27T14:23:26;97622.00;;;3.70
14784;BMP180;7483;50.498;12.138;2022-11-27T14:26:04;97630.00;;;3.50
14784;BMP180;7483;50.498;12.138;2022-11-27T14:28:42;97547.00;;;3.40
14784;BMP180;7483;50.498;12.138;2022-11-27T14:31:25;97491.00;;;3.20